"WATCHING THE WEATHER TO PROTECT LIFE AND PROPERTY"


Aviation
Satellite (InfraRed)


KFLL 220232Z 08008KT 10SM VCTS FEW039 FEW060 27/25 A3010 RMK AO2 LTG DSNT E AND SE RAE16 TSE13E31 P0001 T02670250 $
KMCO 220153Z 10005KT 10SM CLR 27/24 A3014 RMK AO2 SLP204 T02670239
KMIA 220153Z VRB04KT 10SM FEW030 FEW075 SCT130 29/24 A3009 RMK AO2 LTG DSNT N AND NE SLP188 CB DSNT N AND NE T02940239
KTPA 220153Z 09005KT 10SM FEW055 SCT075 BKN250 31/21 A3011 RMK AO2 SLP194 T03110211
MDPP 220000Z 09010KT 9999 FEW020 28/25 Q1016
MDSD 220200Z 05007KT 9999 FEW016CB SCT018 26/25 Q1016 CB/NW DISPT
MKJS 220200Z 20003KT 9999 FEW020CB 29/26 Q1015
MTPP 212300Z 11009KT 9999 SCT026CB 32/23 Q1012 A2989 RMK/CB/N
MUHA 220155Z 07006KT 9000 -RA FEW015CB SCT025 BKN040 23/22 Q1017
MYNN 220200Z 12003KT 9999 SCT018 BKN200 29/25 A3007
TAPA 220200Z 06011KT 9999 SCT018 28/25 Q1016 NOSIG
TFFF 220230Z AUTO 05004KT 010V080 9999 FEW025 SCT068 27/25 Q1015 TEMPO 4000 SHRA SCT018TCU
TFFR 220230Z AUTO VRB03KT CAVOK 27/25 Q1016 TEMPO 4000 SHRA SCT020TCU
TIST 220153Z 08007KT 10SM CLR 28/25 A3002 RMK AO2 SLP167 T02780250
TISX 220153Z 06009KT 10SM FEW024 28/24 A3003 RMK AO2 SLP168 T02780244
TJSJ 220156Z 11006KT 10SM FEW027 SCT038 28/24 A3004 RMK AO2 SLP170 T02780244
TKPK 220100Z 05012KT 9999 FEW016 28/25 Q1016
TNCA 220200Z 09015KT 9999 FEW017 29/25 Q1012 A2991 NOSIG
TNCB 220155Z AUTO 09010KT 9999 NSC 28/25 Q1013
TNCC 220200Z 11008KT 9999 FEW018 28/25 Q1014 NOSIG
TNCE 220155Z AUTO 06012KT 020V090 //// // ///////// 28/26 Q1016 RE//
TNCM 220200Z 07009KT 9999 FEW018 29/27 Q1017 A3003
TQPF 212300Z 10008KT 9999 SCT021 29/23 Q1016
TUPJ 220100Z 10008KT 9999 SCT019 28/24 Q1017 RMK A3003